sensor_id;sensor_type;location;lat;lon;timestamp;P1;durP1;ratioP1;P2;durP2;ratioP2
40867;SDS011;26586;50.708;22.412;2022-10-10T00:00:51;26.00;;;16.23;;
40867;SDS011;26586;50.708;22.412;2022-10-10T00:03:29;25.52;;;16.23;;
40867;SDS011;26586;50.708;22.412;2022-10-10T00:05:55;23.98;;;15.88;;
40867;SDS011;26586;50.708;22.412;2022-10-10T00:08:21;24.85;;;16.13;;
40867;SDS011;26586;50.708;22.412;2022-10-10T00:10:47;23.53;;;15.77;;
40867;SDS011;26586;50.708;22.412;2022-10-10T00:13:14;25.83;;;15.57;;
40867;SDS011;26586;50.708;22.412;2022-10-10T00:15:40;23.90;;;14.95;;
40867;SDS011;26586;50.708;22.412;2022-10-10T00:18:06;26.23;;;15.27;;
40867;SDS011;26586;50.708;22.412;2022-10-10T00:20:33;24.10;;;14.10;;
40867;SDS011;26586;50.708;22.412;2022-10-10T00:22:59;22.43;;;14.47;;
40867;SDS011;26586;50.708;22.412;2022-10-10T00:25:26;31.33;;;16.27;;
40867;SDS011;26586;50.708;22.412;2022-10-10T00:27:52;31.50;;;16.73;;
40867;SDS011;26586;50.708;22.412;2022-10-10T00:30:19;30.60;;;14.90;;
40867;SDS011;26586;50.708;22.412;2022-10-10T00:32:45;21.00;;;12.60;;
40867;SDS011;26586;50.708;22.412;2022-10-10T00:35:12;19.45;;;11.30;;
40867;SDS011;26586;50.708;22.412;2022-10-10T00:37:38;16.93;;;10.80;;
40867;SDS011;26586;50.708;22.412;2022-10-10T00:40:04;18.43;;;10.33;;
40867;SDS011;26586;50.708;22.412;2022-10-10T00:42:31;17.50;;;10.18;;
40867;SDS011;26586;50.708;22.412;2022-10-10T00:47:51;18.58;;;11.43;;
40867;SDS011;26586;50.708;22.412;2022-10-10T00:50:21;16.38;;;10.57;;
40867;SDS011;26586;50.708;22.412;2022-10-10T00:55:17;13.98;;;9.52;;
40867;SDS011;26586;50.708;22.412;2022-10-10T00:57:44;14.07;;;9.13;;
40867;SDS011;26586;50.708;22.412;2022-10-10T01:00:11;19.27;;;11.60;;
40867;SDS011;26586;50.708;22.412;2022-10-10T01:02:37;18.77;;;12.15;;
40867;SDS011;26586;50.708;22.412;2022-10-10T01:05:04;17.33;;;11.40;;
40867;SDS011;26586;50.708;22.412;2022-10-10T01:07:30;17.33;;;10.83;;
40867;SDS011;26586;50.708;22.412;2022-10-10T01:09:58;14.45;;;9.95;;
40867;SDS011;26586;50.708;22.412;2022-10-10T01:31:55;10.90;;;6.55;;
40867;SDS011;26586;50.708;22.412;2022-10-10T01:34:30;11.77;;;7.47;;
40867;SDS011;26586;50.708;22.412;2022-10-10T01:37:08;11.23;;;7.30;;
40867;SDS011;26586;50.708;22.412;2022-10-10T01:39:43;11.27;;;7.28;;
40867;SDS011;26586;50.708;22.412;2022-10-10T01:44:51;10.00;;;6.35;;
40867;SDS011;26586;50.708;22.412;2022-10-10T01:47:19;9.43;;;5.82;;
40867;SDS011;26586;50.708;22.412;2022-10-10T01:49:46;9.43;;;5.90;;
40867;SDS011;26586;50.708;22.412;2022-10-10T02:01:05;5.95;;;3.85;;
40867;SDS011;26586;50.708;22.412;2022-10-10T02:03:39;5.85;;;4.20;;
40867;SDS011;26586;50.708;22.412;2022-10-10T02:08:57;6.75;;;4.03;;
40867;SDS011;26586;50.708;22.412;2022-10-10T02:11:29;5.32;;;3.97;;
40867;SDS011;26586;50.708;22.412;2022-10-10T02:14:20;5.50;;;3.92;;
40867;SDS011;26586;50.708;22.412;2022-10-10T02:16:52;6.03;;;3.45;;
40867;SDS011;26586;50.708;22.412;2022-10-10T02:19:21;5.55;;;3.65;;
40867;SDS011;26586;50.708;22.412;2022-10-10T02:21:49;5.38;;;3.72;;
40867;SDS011;26586;50.708;22.412;2022-10-10T02:24:17;3.75;;;2.30;;
40867;SDS011;26586;50.708;22.412;2022-10-10T02:26:46;4.57;;;2.70;;
40867;SDS011;26586;50.708;22.412;2022-10-10T02:29:28;4.15;;;2.33;;
40867;SDS011;26586;50.708;22.412;2022-10-10T02:34:45;5.35;;;2.97;;
40867;SDS011;26586;50.708;22.412;2022-10-10T02:37:14;5.50;;;2.80;;
40867;SDS011;26586;50.708;22.412;2022-10-10T02:39:42;6.32;;;3.70;;
40867;SDS011;26586;50.708;22.412;2022-10-10T02:42:15;4.97;;;3.47;;
40867;SDS011;26586;50.708;22.412;2022-10-10T02:44:44;6.78;;;3.88;;
40867;SDS011;26586;50.708;22.412;2022-10-10T02:47:11;8.02;;;4.05;;
40867;SDS011;26586;50.708;22.412;2022-10-10T02:49:38;5.55;;;3.40;;
40867;SDS011;26586;50.708;22.412;2022-10-10T02:52:05;5.07;;;3.17;;
40867;SDS011;26586;50.708;22.412;2022-10-10T02:54:32;6.57;;;3.10;;
40867;SDS011;26586;50.708;22.412;2022-10-10T02:56:58;3.40;;;2.20;;
40867;SDS011;26586;50.708;22.412;2022-10-10T02:59:25;4.05;;;2.78;;
40867;SDS011;26586;50.708;22.412;2022-10-10T03:01:51;5.53;;;2.75;;
40867;SDS011;26586;50.708;22.412;2022-10-10T03:04:17;6.72;;;3.72;;
40867;SDS011;26586;50.708;22.412;2022-10-10T03:06:43;7.20;;;3.90;;
40867;SDS011;26586;50.708;22.412;2022-10-10T03:11:36;7.55;;;3.60;;
40867;SDS011;26586;50.708;22.412;2022-10-10T03:14:03;8.00;;;4.40;;
40867;SDS011;26586;50.708;22.412;2022-10-10T03:16:29;5.38;;;3.75;;
40867;SDS011;26586;50.708;22.412;2022-10-10T03:18:55;5.30;;;3.50;;
40867;SDS011;26586;50.708;22.412;2022-10-10T03:21:21;6.82;;;3.85;;
40867;SDS011;26586;50.708;22.412;2022-10-10T03:23:47;6.85;;;4.00;;
40867;SDS011;26586;50.708;22.412;2022-10-10T03:26:13;7.70;;;3.77;;
40867;SDS011;26586;50.708;22.412;2022-10-10T03:28:39;8.65;;;3.75;;
40867;SDS011;26586;50.708;22.412;2022-10-10T03:31:06;5.70;;;3.50;;
40867;SDS011;26586;50.708;22.412;2022-10-10T03:33:33;6.20;;;3.25;;
40867;SDS011;26586;50.708;22.412;2022-10-10T03:35:59;8.57;;;4.03;;
40867;SDS011;26586;50.708;22.412;2022-10-10T03:38:25;7.47;;;3.72;;
40867;SDS011;26586;50.708;22.412;2022-10-10T03:40:52;9.13;;;3.37;;
40867;SDS011;26586;50.708;22.412;2022-10-10T03:43:18;5.30;;;3.13;;
40867;SDS011;26586;50.708;22.412;2022-10-10T03:45:44;8.70;;;3.47;;
40867;SDS011;26586;50.708;22.412;2022-10-10T03:48:12;5.72;;;3.33;;
40867;SDS011;26586;50.708;22.412;2022-10-10T03:50:38;6.53;;;3.95;;
40867;SDS011;26586;50.708;22.412;2022-10-10T03:53:05;5.72;;;3.22;;
40867;SDS011;26586;50.708;22.412;2022-10-10T03:55:31;5.00;;;3.17;;
40867;SDS011;26586;50.708;22.412;2022-10-10T03:57:57;4.43;;;3.10;;
40867;SDS011;26586;50.708;22.412;2022-10-10T04:00:23;5.22;;;3.60;;
40867;SDS011;26586;50.708;22.412;2022-10-10T04:02:50;8.48;;;3.20;;
40867;SDS011;26586;50.708;22.412;2022-10-10T04:05:18;3.60;;;2.72;;
40867;SDS011;26586;50.708;22.412;2022-10-10T04:07:44;4.07;;;2.85;;
40867;SDS011;26586;50.708;22.412;2022-10-10T04:10:11;4.60;;;2.95;;
40867;SDS011;26586;50.708;22.412;2022-10-10T04:12:37;6.38;;;3.35;;
40867;SDS011;26586;50.708;22.412;2022-10-10T04:15:03;7.60;;;2.93;;
40867;SDS011;26586;50.708;22.412;2022-10-10T04:17:30;6.40;;;2.92;;
40867;SDS011;26586;50.708;22.412;2022-10-10T04:19:56;6.23;;;3.70;;
40867;SDS011;26586;50.708;22.412;2022-10-10T04:22:22;5.78;;;3.80;;
40867;SDS011;26586;50.708;22.412;2022-10-10T04:24:49;6.77;;;4.83;;
40867;SDS011;26586;50.708;22.412;2022-10-10T04:27:15;6.25;;;4.18;;
40867;SDS011;26586;50.708;22.412;2022-10-10T04:29:41;16.50;;;4.63;;
40867;SDS011;26586;50.708;22.412;2022-10-10T04:32:07;11.55;;;4.43;;
40867;SDS011;26586;50.708;22.412;2022-10-10T04:34:33;30.40;;;27.20;;
40867;SDS011;26586;50.708;22.412;2022-10-10T04:36:59;55.17;;;39.80;;
40867;SDS011;26586;50.708;22.412;2022-10-10T04:39:26;51.90;;;42.00;;
40867;SDS011;26586;50.708;22.412;2022-10-10T04:41:52;21.02;;;18.45;;
40867;SDS011;26586;50.708;22.412;2022-10-10T04:44:19;23.65;;;16.25;;
40867;SDS011;26586;50.708;22.412;2022-10-10T04:46:45;13.43;;;7.82;;
40867;SDS011;26586;50.708;22.412;2022-10-10T04:49:11;9.20;;;5.93;;
40867;SDS011;26586;50.708;22.412;2022-10-10T04:51:38;6.80;;;4.57;;
40867;SDS011;26586;50.708;22.412;2022-10-10T04:54:04;9.30;;;4.47;;
40867;SDS011;26586;50.708;22.412;2022-10-10T04:56:30;27.77;;;24.52;;
40867;SDS011;26586;50.708;22.412;2022-10-10T04:58:56;19.77;;;15.23;;
40867;SDS011;26586;50.708;22.412;2022-10-10T05:01:22;8.77;;;4.82;;
40867;SDS011;26586;50.708;22.412;2022-10-10T05:03:49;9.50;;;4.33;;
40867;SDS011;26586;50.708;22.412;2022-10-10T05:06:15;10.02;;;6.28;;
40867;SDS011;26586;50.708;22.412;2022-10-10T05:08:43;25.50;;;17.80;;
40867;SDS011;26586;50.708;22.412;2022-10-10T05:11:09;17.08;;;6.47;;
40867;SDS011;26586;50.708;22.412;2022-10-10T05:13:35;10.80;;;7.83;;
40867;SDS011;26586;50.708;22.412;2022-10-10T05:16:01;8.68;;;4.40;;
40867;SDS011;26586;50.708;22.412;2022-10-10T05:18:27;10.48;;;5.15;;
40867;SDS011;26586;50.708;22.412;2022-10-10T05:20:53;14.82;;;7.55;;
40867;SDS011;26586;50.708;22.412;2022-10-10T05:23:20;12.90;;;7.10;;
40867;SDS011;26586;50.708;22.412;2022-10-10T05:25:49;11.73;;;7.28;;
40867;SDS011;26586;50.708;22.412;2022-10-10T05:28:16;23.85;;;15.50;;
40867;SDS011;26586;50.708;22.412;2022-10-10T05:30:42;9.40;;;7.00;;
40867;SDS011;26586;50.708;22.412;2022-10-10T05:33:08;8.00;;;5.85;;
40867;SDS011;26586;50.708;22.412;2022-10-10T05:35:34;20.85;;;14.70;;
40867;SDS011;26586;50.708;22.412;2022-10-10T05:38:01;27.33;;;19.70;;
40867;SDS011;26586;50.708;22.412;2022-10-10T05:40:27;25.73;;;20.83;;
40867;SDS011;26586;50.708;22.412;2022-10-10T05:42:53;33.83;;;23.23;;
40867;SDS011;26586;50.708;22.412;2022-10-10T05:45:19;10.20;;;6.07;;
40867;SDS011;26586;50.708;22.412;2022-10-10T05:47:46;16.23;;;5.70;;
40867;SDS011;26586;50.708;22.412;2022-10-10T05:50:26;11.05;;;6.25;;
40867;SDS011;26586;50.708;22.412;2022-10-10T05:52:59;18.50;;;10.63;;
40867;SDS011;26586;50.708;22.412;2022-10-10T05:55:26;14.88;;;7.28;;
40867;SDS011;26586;50.708;22.412;2022-10-10T05:57:52;18.00;;;10.55;;
40867;SDS011;26586;50.708;22.412;2022-10-10T06:00:18;15.93;;;9.57;;
40867;SDS011;26586;50.708;22.412;2022-10-10T06:02:45;12.63;;;8.37;;
40867;SDS011;26586;50.708;22.412;2022-10-10T06:05:11;9.35;;;6.65;;
40867;SDS011;26586;50.708;22.412;2022-10-10T06:07:37;8.63;;;6.03;;
40867;SDS011;26586;50.708;22.412;2022-10-10T06:10:04;32.67;;;21.73;;
40867;SDS011;26586;50.708;22.412;2022-10-10T06:12:30;8.90;;;5.70;;
40867;SDS011;26586;50.708;22.412;2022-10-10T06:14:57;6.57;;;4.82;;
40867;SDS011;26586;50.708;22.412;2022-10-10T06:17:23;8.10;;;5.97;;
40867;SDS011;26586;50.708;22.412;2022-10-10T06:19:49;10.02;;;8.02;;
40867;SDS011;26586;50.708;22.412;2022-10-10T06:22:16;17.57;;;12.77;;
40867;SDS011;26586;50.708;22.412;2022-10-10T06:24:42;12.82;;;11.48;;
40867;SDS011;26586;50.708;22.412;2022-10-10T06:27:08;10.73;;;8.27;;
40867;SDS011;26586;50.708;22.412;2022-10-10T06:29:34;15.05;;;10.60;;
40867;SDS011;26586;50.708;22.412;2022-10-10T06:32:01;15.63;;;11.55;;
40867;SDS011;26586;50.708;22.412;2022-10-10T06:34:29;7.43;;;5.72;;
40867;SDS011;26586;50.708;22.412;2022-10-10T06:36:55;6.03;;;3.40;;
40867;SDS011;26586;50.708;22.412;2022-10-10T06:39:21;5.10;;;3.30;;
40867;SDS011;26586;50.708;22.412;2022-10-10T06:41:48;6.87;;;3.80;;
40867;SDS011;26586;50.708;22.412;2022-10-10T06:44:15;6.53;;;4.33;;
40867;SDS011;26586;50.708;22.412;2022-10-10T06:46:42;8.20;;;4.10;;
40867;SDS011;26586;50.708;22.412;2022-10-10T06:49:09;7.82;;;5.07;;
40867;SDS011;26586;50.708;22.412;2022-10-10T06:51:35;5.90;;;4.75;;
40867;SDS011;26586;50.708;22.412;2022-10-10T06:54:03;6.10;;;4.78;;
40867;SDS011;26586;50.708;22.412;2022-10-10T06:56:30;6.97;;;5.28;;
40867;SDS011;26586;50.708;22.412;2022-10-10T06:58:56;8.45;;;5.35;;
40867;SDS011;26586;50.708;22.412;2022-10-10T07:01:23;7.78;;;4.72;;
40867;SDS011;26586;50.708;22.412;2022-10-10T07:03:50;8.68;;;4.93;;
40867;SDS011;26586;50.708;22.412;2022-10-10T07:06:17;6.15;;;4.55;;
40867;SDS011;26586;50.708;22.412;2022-10-10T07:08:43;6.13;;;4.10;;
40867;SDS011;26586;50.708;22.412;2022-10-10T07:11:10;4.80;;;3.57;;
40867;SDS011;26586;50.708;22.412;2022-10-10T07:13:36;5.53;;;3.73;;
40867;SDS011;26586;50.708;22.412;2022-10-10T07:16:03;5.90;;;3.10;;
40867;SDS011;26586;50.708;22.412;2022-10-10T07:20:57;7.82;;;3.50;;
40867;SDS011;26586;50.708;22.412;2022-10-10T07:23:24;5.00;;;3.65;;
40867;SDS011;26586;50.708;22.412;2022-10-10T07:25:51;5.55;;;3.88;;
40867;SDS011;26586;50.708;22.412;2022-10-10T07:28:23;5.82;;;3.17;;
40867;SDS011;26586;50.708;22.412;2022-10-10T07:30:49;4.33;;;3.40;;
40867;SDS011;26586;50.708;22.412;2022-10-10T07:33:16;7.60;;;3.78;;
40867;SDS011;26586;50.708;22.412;2022-10-10T07:35:42;6.80;;;3.88;;
40867;SDS011;26586;50.708;22.412;2022-10-10T07:38:18;6.57;;;3.83;;
40867;SDS011;26586;50.708;22.412;2022-10-10T07:40:45;4.40;;;3.20;;
40867;SDS011;26586;50.708;22.412;2022-10-10T07:43:11;7.00;;;4.30;;
40867;SDS011;26586;50.708;22.412;2022-10-10T07:45:37;10.17;;;3.90;;
40867;SDS011;26586;50.708;22.412;2022-10-10T07:48:04;8.10;;;4.57;;
40867;SDS011;26586;50.708;22.412;2022-10-10T07:50:31;8.45;;;4.80;;
40867;SDS011;26586;50.708;22.412;2022-10-10T07:53:00;7.30;;;3.97;;
40867;SDS011;26586;50.708;22.412;2022-10-10T07:55:42;4.78;;;2.88;;
40867;SDS011;26586;50.708;22.412;2022-10-10T07:58:11;4.45;;;2.80;;
40867;SDS011;26586;50.708;22.412;2022-10-10T08:00:38;6.78;;;3.17;;
40867;SDS011;26586;50.708;22.412;2022-10-10T08:03:10;5.53;;;3.45;;
40867;SDS011;26586;50.708;22.412;2022-10-10T08:05:40;4.72;;;2.95;;
40867;SDS011;26586;50.708;22.412;2022-10-10T08:08:10;3.97;;;2.35;;
40867;SDS011;26586;50.708;22.412;2022-10-10T08:10:37;4.13;;;2.60;;
40867;SDS011;26586;50.708;22.412;2022-10-10T08:13:08;4.60;;;2.65;;
40867;SDS011;26586;50.708;22.412;2022-10-10T08:15:34;3.37;;;2.20;;
40867;SDS011;26586;50.708;22.412;2022-10-10T08:18:04;3.10;;;2.05;;
40867;SDS011;26586;50.708;22.412;2022-10-10T08:20:30;4.65;;;2.15;;
40867;SDS011;26586;50.708;22.412;2022-10-10T08:22:56;5.32;;;2.55;;
40867;SDS011;26586;50.708;22.412;2022-10-10T08:25:23;4.20;;;2.38;;
40867;SDS011;26586;50.708;22.412;2022-10-10T08:27:52;6.32;;;2.30;;
40867;SDS011;26586;50.708;22.412;2022-10-10T08:30:18;4.50;;;2.00;;
40867;SDS011;26586;50.708;22.412;2022-10-10T08:32:50;4.32;;;1.95;;
40867;SDS011;26586;50.708;22.412;2022-10-10T08:35:18;2.63;;;1.90;;
40867;SDS011;26586;50.708;22.412;2022-10-10T08:37:51;4.07;;;1.80;;
40867;SDS011;26586;50.708;22.412;2022-10-10T08:40:20;5.78;;;1.90;;
40867;SDS011;26586;50.708;22.412;2022-10-10T08:42:51;5.95;;;2.40;;
40867;SDS011;26586;50.708;22.412;2022-10-10T08:45:27;2.80;;;1.50;;
40867;SDS011;26586;50.708;22.412;2022-10-10T08:50:56;1.55;;;0.95;;
40867;SDS011;26586;50.708;22.412;2022-10-10T08:53:38;5.20;;;1.67;;
40867;SDS011;26586;50.708;22.412;2022-10-10T08:56:19;3.15;;;1.60;;
40867;SDS011;26586;50.708;22.412;2022-10-10T08:58:51;3.35;;;1.83;;
40867;SDS011;26586;50.708;22.412;2022-10-10T09:01:22;8.27;;;1.77;;
40867;SDS011;26586;50.708;22.412;2022-10-10T09:04:01;5.38;;;1.90;;
40867;SDS011;26586;50.708;22.412;2022-10-10T09:09:32;1.55;;;0.90;;
40867;SDS011;26586;50.708;22.412;2022-10-10T09:17:54;1.50;;;0.98;;
40867;SDS011;26586;50.708;22.412;2022-10-10T09:20:35;1.88;;;1.05;;
40867;SDS011;26586;50.708;22.412;2022-10-10T09:26:01;3.40;;;2.10;;
40867;SDS011;26586;50.708;22.412;2022-10-10T09:28:39;4.78;;;1.92;;
40867;SDS011;26586;50.708;22.412;2022-10-10T09:31:11;2.10;;;1.35;;
40867;SDS011;26586;50.708;22.412;2022-10-10T09:36:13;4.40;;;1.67;;
40867;SDS011;26586;50.708;22.412;2022-10-10T09:38:46;5.43;;;1.77;;
40867;SDS011;26586;50.708;22.412;2022-10-10T09:41:22;4.85;;;1.50;;
40867;SDS011;26586;50.708;22.412;2022-10-10T09:43:54;6.45;;;1.08;;
40867;SDS011;26586;50.708;22.412;2022-10-10T09:46:21;2.22;;;0.98;;
40867;SDS011;26586;50.708;22.412;2022-10-10T09:48:48;2.00;;;1.30;;
40867;SDS011;26586;50.708;22.412;2022-10-10T09:51:15;2.75;;;1.70;;
40867;SDS011;26586;50.708;22.412;2022-10-10T09:53:44;3.33;;;1.50;;
40867;SDS011;26586;50.708;22.412;2022-10-10T09:56:22;3.58;;;1.98;;
40867;SDS011;26586;50.708;22.412;2022-10-10T09:58:55;2.08;;;1.58;;
40867;SDS011;26586;50.708;22.412;2022-10-10T10:01:28;3.95;;;1.35;;
40867;SDS011;26586;50.708;22.412;2022-10-10T10:04:16;4.90;;;1.80;;
40867;SDS011;26586;50.708;22.412;2022-10-10T10:06:48;1.80;;;1.23;;
40867;SDS011;26586;50.708;22.412;2022-10-10T10:09:16;2.80;;;1.40;;
40867;SDS011;26586;50.708;22.412;2022-10-10T10:11:53;2.70;;;1.10;;
40867;SDS011;26586;50.708;22.412;2022-10-10T10:16:53;1.45;;;1.00;;
40867;SDS011;26586;50.708;22.412;2022-10-10T10:19:30;3.33;;;1.48;;
40867;SDS011;26586;50.708;22.412;2022-10-10T10:21:58;3.33;;;1.92;;
40867;SDS011;26586;50.708;22.412;2022-10-10T10:24:32;4.88;;;2.20;;
40867;SDS011;26586;50.708;22.412;2022-10-10T10:27:20;5.43;;;2.63;;
40867;SDS011;26586;50.708;22.412;2022-10-10T10:29:52;5.32;;;2.95;;
40867;SDS011;26586;50.708;22.412;2022-10-10T10:33:03;4.50;;;1.85;;
40867;SDS011;26586;50.708;22.412;2022-10-10T10:35:37;3.13;;;1.40;;
40867;SDS011;26586;50.708;22.412;2022-10-10T10:41:03;1.58;;;0.77;;
40867;SDS011;26586;50.708;22.412;2022-10-10T10:48:58;0.80;;;0.60;;
40867;SDS011;26586;50.708;22.412;2022-10-10T10:51:48;1.65;;;0.70;;
40867;SDS011;26586;50.708;22.412;2022-10-10T10:54:28;2.63;;;0.68;;
40867;SDS011;26586;50.708;22.412;2022-10-10T10:57:30;1.33;;;0.70;;
40867;SDS011;26586;50.708;22.412;2022-10-10T11:00:07;3.55;;;1.00;;
40867;SDS011;26586;50.708;22.412;2022-10-10T11:16:24;0.77;;;0.40;;
40867;SDS011;26586;50.708;22.412;2022-10-10T11:19:03;1.13;;;0.55;;
40867;SDS011;26586;50.708;22.412;2022-10-10T11:24:40;1.38;;;0.40;;
40867;SDS011;26586;50.708;22.412;2022-10-10T11:27:21;1.70;;;0.85;;
40867;SDS011;26586;50.708;22.412;2022-10-10T11:30:02;2.25;;;1.00;;
40867;SDS011;26586;50.708;22.412;2022-10-10T11:33:22;2.42;;;1.48;;
40867;SDS011;26586;50.708;22.412;2022-10-10T11:35:46;1.98;;;0.65;;
40867;SDS011;26586;50.708;22.412;2022-10-10T11:38:29;3.22;;;1.10;;
40867;SDS011;26586;50.708;22.412;2022-10-10T11:41:06;5.38;;;2.33;;
40867;SDS011;26586;50.708;22.412;2022-10-10T11:43:59;7.10;;;3.30;;
40867;SDS011;26586;50.708;22.412;2022-10-10T11:47:06;4.22;;;1.77;;
40867;SDS011;26586;50.708;22.412;2022-10-10T11:55:22;6.03;;;2.00;;
40867;SDS011;26586;50.708;22.412;2022-10-10T12:00:35;2.08;;;1.30;;
40867;SDS011;26586;50.708;22.412;2022-10-10T12:03:06;2.80;;;1.88;;
40867;SDS011;26586;50.708;22.412;2022-10-10T12:05:33;2.17;;;1.50;;
40867;SDS011;26586;50.708;22.412;2022-10-10T12:08:05;3.80;;;1.40;;
40867;SDS011;26586;50.708;22.412;2022-10-10T12:13:32;4.55;;;1.60;;
40867;SDS011;26586;50.708;22.412;2022-10-10T12:16:04;2.65;;;1.50;;
40867;SDS011;26586;50.708;22.412;2022-10-10T12:21:23;6.68;;;3.42;;
40867;SDS011;26586;50.708;22.412;2022-10-10T12:27:07;2.72;;;1.33;;
40867;SDS011;26586;50.708;22.412;2022-10-10T12:29:38;2.88;;;1.90;;
40867;SDS011;26586;50.708;22.412;2022-10-10T12:35:10;2.45;;;1.10;;
40867;SDS011;26586;50.708;22.412;2022-10-10T12:40:31;2.45;;;1.30;;
40867;SDS011;26586;50.708;22.412;2022-10-10T12:43:00;2.92;;;1.38;;
40867;SDS011;26586;50.708;22.412;2022-10-10T12:48:57;6.22;;;3.83;;
40867;SDS011;26586;50.708;22.412;2022-10-10T12:51:43;10.00;;;6.38;;
40867;SDS011;26586;50.708;22.412;2022-10-10T12:54:23;3.42;;;2.10;;
40867;SDS011;26586;50.708;22.412;2022-10-10T12:57:03;2.80;;;1.52;;
40867;SDS011;26586;50.708;22.412;2022-10-10T12:59:39;3.92;;;1.55;;
40867;SDS011;26586;50.708;22.412;2022-10-10T13:02:12;2.75;;;1.67;;
40867;SDS011;26586;50.708;22.412;2022-10-10T13:04:56;3.67;;;1.75;;
40867;SDS011;26586;50.708;22.412;2022-10-10T13:07:25;4.55;;;1.80;;
40867;SDS011;26586;50.708;22.412;2022-10-10T13:09:52;5.13;;;1.77;;
40867;SDS011;26586;50.708;22.412;2022-10-10T13:12:29;2.45;;;1.33;;
40867;SDS011;26586;50.708;22.412;2022-10-10T13:14:57;2.95;;;1.40;;
40867;SDS011;26586;50.708;22.412;2022-10-10T13:20:02;4.45;;;2.80;;
40867;SDS011;26586;50.708;22.412;2022-10-10T13:22:30;3.40;;;1.83;;
40867;SDS011;26586;50.708;22.412;2022-10-10T13:24:58;2.20;;;1.27;;
40867;SDS011;26586;50.708;22.412;2022-10-10T13:27:29;4.20;;;1.60;;
40867;SDS011;26586;50.708;22.412;2022-10-10T13:29:57;4.22;;;1.38;;
40867;SDS011;26586;50.708;22.412;2022-10-10T13:32:25;3.80;;;1.90;;
40867;SDS011;26586;50.708;22.412;2022-10-10T13:35:05;4.15;;;2.60;;
40867;SDS011;26586;50.708;22.412;2022-10-10T13:37:39;7.43;;;1.88;;
40867;SDS011;26586;50.708;22.412;2022-10-10T13:40:15;2.65;;;1.40;;
40867;SDS011;26586;50.708;22.412;2022-10-10T13:42:43;1.65;;;1.20;;
40867;SDS011;26586;50.708;22.412;2022-10-10T13:47:54;3.95;;;1.88;;
40867;SDS011;26586;50.708;22.412;2022-10-10T13:50:30;4.45;;;1.88;;
40867;SDS011;26586;50.708;22.412;2022-10-10T13:55:58;1.95;;;1.20;;
40867;SDS011;26586;50.708;22.412;2022-10-10T13:58:38;2.05;;;1.20;;
40867;SDS011;26586;50.708;22.412;2022-10-10T14:01:17;3.72;;;1.92;;
40867;SDS011;26586;50.708;22.412;2022-10-10T14:03:52;4.25;;;1.75;;
40867;SDS011;26586;50.708;22.412;2022-10-10T14:06:25;3.65;;;1.42;;
40867;SDS011;26586;50.708;22.412;2022-10-10T14:08:52;3.35;;;1.30;;
40867;SDS011;26586;50.708;22.412;2022-10-10T14:11:24;3.95;;;1.60;;
40867;SDS011;26586;50.708;22.412;2022-10-10T14:13:55;4.25;;;1.52;;
40867;SDS011;26586;50.708;22.412;2022-10-10T14:16:32;3.90;;;1.35;;
40867;SDS011;26586;50.708;22.412;2022-10-10T14:18:59;4.35;;;2.17;;
40867;SDS011;26586;50.708;22.412;2022-10-10T14:21:25;3.53;;;1.17;;
40867;SDS011;26586;50.708;22.412;2022-10-10T14:23:51;3.72;;;1.83;;
40867;SDS011;26586;50.708;22.412;2022-10-10T14:26:18;9.23;;;4.18;;
40867;SDS011;26586;50.708;22.412;2022-10-10T14:28:46;6.22;;;2.95;;
40867;SDS011;26586;50.708;22.412;2022-10-10T14:31:17;3.97;;;1.60;;
40867;SDS011;26586;50.708;22.412;2022-10-10T14:33:43;3.80;;;1.80;;
40867;SDS011;26586;50.708;22.412;2022-10-10T14:36:10;3.03;;;1.38;;
40867;SDS011;26586;50.708;22.412;2022-10-10T14:38:37;4.68;;;1.65;;
40867;SDS011;26586;50.708;22.412;2022-10-10T14:41:03;4.85;;;1.55;;
40867;SDS011;26586;50.708;22.412;2022-10-10T14:43:30;5.23;;;2.00;;
40867;SDS011;26586;50.708;22.412;2022-10-10T14:45:56;4.95;;;2.60;;
40867;SDS011;26586;50.708;22.412;2022-10-10T14:48:22;4.65;;;2.90;;
40867;SDS011;26586;50.708;22.412;2022-10-10T14:50:49;6.93;;;3.63;;
40867;SDS011;26586;50.708;22.412;2022-10-10T14:53:15;5.45;;;2.85;;
40867;SDS011;26586;50.708;22.412;2022-10-10T14:55:42;6.53;;;2.42;;
40867;SDS011;26586;50.708;22.412;2022-10-10T14:58:14;7.75;;;5.75;;
40867;SDS011;26586;50.708;22.412;2022-10-10T15:00:42;8.98;;;2.85;;
40867;SDS011;26586;50.708;22.412;2022-10-10T15:03:09;8.35;;;4.10;;
40867;SDS011;26586;50.708;22.412;2022-10-10T15:05:35;4.82;;;2.25;;
40867;SDS011;26586;50.708;22.412;2022-10-10T15:08:02;4.57;;;3.08;;
40867;SDS011;26586;50.708;22.412;2022-10-10T15:10:28;6.75;;;3.50;;
40867;SDS011;26586;50.708;22.412;2022-10-10T15:12:55;5.38;;;3.10;;
40867;SDS011;26586;50.708;22.412;2022-10-10T15:15:21;4.60;;;3.28;;
40867;SDS011;26586;50.708;22.412;2022-10-10T15:17:47;5.43;;;2.97;;
40867;SDS011;26586;50.708;22.412;2022-10-10T15:22:40;9.52;;;5.53;;
40867;SDS011;26586;50.708;22.412;2022-10-10T15:25:07;9.45;;;4.80;;
40867;SDS011;26586;50.708;22.412;2022-10-10T15:30:01;9.25;;;6.68;;
40867;SDS011;26586;50.708;22.412;2022-10-10T15:32:27;10.15;;;5.70;;
40867;SDS011;26586;50.708;22.412;2022-10-10T15:34:54;9.47;;;5.17;;
40867;SDS011;26586;50.708;22.412;2022-10-10T15:37:22;7.77;;;4.67;;
40867;SDS011;26586;50.708;22.412;2022-10-10T15:39:50;8.70;;;5.45;;
40867;SDS011;26586;50.708;22.412;2022-10-10T15:42:16;7.32;;;4.50;;
40867;SDS011;26586;50.708;22.412;2022-10-10T15:44:44;30.55;;;15.90;;
40867;SDS011;26586;50.708;22.412;2022-10-10T15:47:11;32.30;;;16.25;;
40867;SDS011;26586;50.708;22.412;2022-10-10T15:49:38;58.65;;;25.52;;
40867;SDS011;26586;50.708;22.412;2022-10-10T15:52:05;51.22;;;21.60;;
40867;SDS011;26586;50.708;22.412;2022-10-10T15:54:32;62.03;;;24.95;;
40867;SDS011;26586;50.708;22.412;2022-10-10T15:56:58;30.55;;;15.90;;
40867;SDS011;26586;50.708;22.412;2022-10-10T15:59:24;33.28;;;17.30;;
40867;SDS011;26586;50.708;22.412;2022-10-10T16:01:51;42.78;;;21.73;;
40867;SDS011;26586;50.708;22.412;2022-10-10T16:04:18;51.70;;;25.20;;
40867;SDS011;26586;50.708;22.412;2022-10-10T16:06:47;62.67;;;37.15;;
40867;SDS011;26586;50.708;22.412;2022-10-10T16:09:14;66.15;;;44.17;;
40867;SDS011;26586;50.708;22.412;2022-10-10T16:11:40;66.82;;;45.13;;
40867;SDS011;26586;50.708;22.412;2022-10-10T16:14:06;44.63;;;27.47;;
40867;SDS011;26586;50.708;22.412;2022-10-10T16:16:32;21.50;;;14.45;;
40867;SDS011;26586;50.708;22.412;2022-10-10T16:18:59;41.13;;;23.07;;
40867;SDS011;26586;50.708;22.412;2022-10-10T16:21:25;43.43;;;27.03;;
40867;SDS011;26586;50.708;22.412;2022-10-10T16:23:51;33.88;;;19.67;;
40867;SDS011;26586;50.708;22.412;2022-10-10T16:26:20;22.33;;;13.90;;
40867;SDS011;26586;50.708;22.412;2022-10-10T16:28:48;14.43;;;8.90;;
40867;SDS011;26586;50.708;22.412;2022-10-10T16:31:15;10.65;;;7.82;;
40867;SDS011;26586;50.708;22.412;2022-10-10T16:33:44;52.47;;;28.73;;
40867;SDS011;26586;50.708;22.412;2022-10-10T16:36:13;34.20;;;20.60;;
40867;SDS011;26586;50.708;22.412;2022-10-10T16:38:45;66.00;;;34.88;;
40867;SDS011;26586;50.708;22.412;2022-10-10T16:41:13;61.67;;;28.95;;
40867;SDS011;26586;50.708;22.412;2022-10-10T16:43:41;89.88;;;51.42;;
40867;SDS011;26586;50.708;22.412;2022-10-10T16:46:10;42.83;;;30.52;;
40867;SDS011;26586;50.708;22.412;2022-10-10T16:48:38;61.05;;;44.20;;
40867;SDS011;26586;50.708;22.412;2022-10-10T16:51:06;35.00;;;27.20;;
40867;SDS011;26586;50.708;22.412;2022-10-10T16:53:34;45.97;;;35.22;;